Time;durP1;ratioP1;P1;durP2;ratioP2;P2;SDS_P1;SDS_P2;PMS_P1;PMS_P2;Temp;Humidity;BMP_temperature;BMP_pressure;BME280_temperature;BME280_humidity;BME280_pressure;Samples;Min_cycle;Max_cycle;Signal;HPM_P1;HPM_P2
2022/07/12 00:02:19;;;;;;;2.33;1.70;;;;;;;21.76;51.75;100609.31;4989388;28;20053;-83
2022/07/12 00:04:46;;;;;;;3.70;2.20;;;;;;;21.76;51.76;100605.78;5017873;28;20045;-90
2022/07/12 00:07:14;;;;;;;2.45;2.10;;;;;;;21.75;51.63;100607.63;5037810;28;20086;-90
2022/07/12 00:09:41;;;;;;;3.53;2.10;;;;;;;21.70;51.66;100609.22;5044654;28;20040;-90
2022/07/12 00:12:09;;;;;;;2.65;2.40;;;;;;;21.67;51.94;100613.16;5013473;28;20817;-90
2022/07/12 00:14:36;;;;;;;2.53;2.17;;;;;;;21.69;51.67;100611.09;5069091;28;20045;-89
2022/07/12 00:17:04;;;;;;;3.78;2.22;;;;;;;21.67;51.66;100615.84;5046414;28;20044;-89
2022/07/12 00:19:30;;;;;;;4.97;2.33;;;;;;;21.64;51.78;100613.53;5028276;28;20488;-87
2022/07/12 00:21:57;;;;;;;2.17;1.95;;;;;;;21.64;51.82;100610.81;5048097;28;20049;-88
2022/07/12 00:24:24;;;;;;;3.28;2.10;;;;;;;21.63;52.09;100617.28;5040016;28;20108;-81
2022/07/12 00:26:52;;;;;;;2.33;2.13;;;;;;;21.62;51.77;100612.88;5020028;28;20692;-81
2022/07/12 00:33:00;;;;;;;3.05;1.90;;;;;;;21.59;52.00;100613.25;4996348;28;20124;-81
2022/07/12 00:35:27;;;;;;;2.22;1.98;;;;;;;21.57;52.06;100613.44;5035623;28;20041;-89
2022/07/12 00:37:54;;;;;;;3.58;2.13;;;;;;;21.53;51.97;100612.16;5059174;28;20041;-88
2022/07/12 00:40:21;;;;;;;2.38;2.00;;;;;;;21.54;51.98;100607.59;5063964;28;20041;-88
2022/07/12 00:42:48;;;;;;;2.42;1.95;;;;;;;21.52;51.96;100605.06;5029683;28;20385;-89
2022/07/12 00:45:15;;;;;;;2.55;1.95;;;;;;;21.49;51.86;100602.72;5031515;28;20041;-89
2022/07/12 00:47:44;;;;;;;2.55;2.20;;;;;;;21.43;51.89;100604.34;5059585;28;20033;-83
2022/07/12 00:50:17;;;;;;;2.42;2.10;;;;;;;21.38;52.74;100601.34;5007273;28;20072;-89
2022/07/12 00:52:45;;;;;;;3.45;2.00;;;;;;;21.40;52.25;100602.00;5025087;28;20122;-83
2022/07/12 00:55:12;;;;;;;3.10;1.90;;;;;;;21.39;52.36;100597.63;5073018;28;20507;-83
2022/07/12 00:57:43;;;;;;;2.60;2.10;;;;;;;21.35;52.73;100599.00;5081182;28;20090;-83
2022/07/12 01:00:13;;;;;;;2.28;1.70;;;;;;;21.31;52.49;100597.69;5071822;28;20124;-88
2022/07/12 01:02:40;;;;;;;2.80;1.92;;;;;;;21.32;52.41;100596.69;5041427;28;20453;-89
2022/07/12 01:05:08;;;;;;;2.75;1.75;;;;;;;21.32;52.46;100585.00;5015904;28;20056;-79
2022/07/12 01:07:36;;;;;;;2.65;2.40;;;;;;;21.30;52.53;100587.91;5039033;28;20037;-79
2022/07/12 01:13:50;;;;;;;2.42;2.10;;;;;;;21.28;52.29;100591.84;4992094;28;20045;-89
2022/07/12 01:16:17;;;;;;;1.98;1.77;;;;;;;21.22;52.47;100593.44;5042084;28;20115;-81
2022/07/12 01:18:46;;;;;;;3.25;1.70;;;;;;;21.22;52.32;100593.44;5042088;28;22426;-81
2022/07/12 01:21:19;;;;;;;1.95;1.77;;;;;;;21.16;52.81;100591.47;5011731;28;20506;-81
2022/07/12 01:23:46;;;;;;;3.03;2.00;;;;;;;21.07;52.57;100601.53;5024138;28;20045;-84
2022/07/12 01:26:13;;;;;;;2.50;2.00;;;;;;;21.06;52.53;100596.28;5043342;28;20094;-84
2022/07/12 01:28:39;;;;;;;2.13;1.92;;;;;;;21.06;52.58;100602.53;5028831;28;20048;-84
2022/07/12 01:31:06;;;;;;;4.40;2.20;;;;;;;21.05;52.88;100595.47;5047500;28;20052;-84
2022/07/12 01:33:33;;;;;;;5.05;1.92;;;;;;;21.01;52.82;100591.44;5002741;28;20068;-88
2022/07/12 01:36:00;;;;;;;2.83;2.15;;;;;;;21.05;52.57;100589.22;5022630;28;20631;-88
2022/07/12 01:38:27;;;;;;;3.35;2.10;;;;;;;20.97;52.83;100592.88;5029187;28;20045;-84
2022/07/12 01:40:54;;;;;;;1.80;1.70;;;;;;;20.96;52.88;100599.25;5044035;28;20094;-84
2022/07/12 01:43:20;;;;;;;2.28;2.00;;;;;;;20.94;52.90;100595.91;5030752;28;20136;-82
2022/07/12 01:45:49;;;;;;;1.92;1.77;;;;;;;20.94;52.85;100593.19;5027298;28;20079;-81
2022/07/12 01:48:16;;;;;;;3.00;1.83;;;;;;;20.92;52.89;100592.56;5017974;28;20497;-88
2022/07/12 01:50:43;;;;;;;3.13;2.03;;;;;;;20.91;52.54;100599.81;5031522;28;20048;-88
2022/07/12 01:53:11;;;;;;;2.33;2.08;;;;;;;20.89;52.67;100595.63;5028934;28;20123;-86
2022/07/12 01:55:38;;;;;;;1.95;1.85;;;;;;;20.86;52.70;100596.00;5050366;28;20045;-88
2022/07/12 01:58:05;;;;;;;2.88;2.08;;;;;;;20.78;52.87;100588.81;5052550;28;20051;-89
2022/07/12 02:00:32;;;;;;;2.25;1.65;;;;;;;20.76;52.96;100594.41;5013744;28;20053;-88
2022/07/12 02:02:59;;;;;;;6.70;2.25;;;;;;;20.74;53.08;100593.75;5022439;28;20047;-88
2022/07/12 02:05:26;;;;;;;2.42;2.13;;;;;;;20.71;53.06;100599.53;5028210;28;20052;-88
2022/07/12 02:07:53;;;;;;;4.40;2.13;;;;;;;20.70;53.06;100594.31;5041391;28;20045;-79
2022/07/12 02:10:20;;;;;;;2.13;1.70;;;;;;;20.62;53.35;100600.63;5016997;28;20098;-79
2022/07/12 02:17:37;;;;;;;2.28;2.08;;;;;;;20.55;53.15;100596.97;5012505;28;20060;-89
2022/07/12 02:20:05;;;;;;;2.25;2.03;;;;;;;20.52;53.22;100595.44;5024900;28;20519;-83
2022/07/12 02:22:31;;;;;;;2.65;1.90;;;;;;;20.55;53.34;100599.66;5023369;28;20092;-84
2022/07/12 02:24:58;;;;;;;3.85;2.08;;;;;;;20.52;53.40;100597.31;5010896;28;20041;-79
2022/07/12 02:27:51;;;;;;;2.22;1.80;;;;;;;20.49;53.84;100603.91;5007984;28;20041;-79
2022/07/12 02:30:17;;;;;;;3.33;2.23;;;;;;;20.50;53.84;100602.88;4981483;28;20052;-79
2022/07/12 02:32:45;;;;;;;1.92;1.83;;;;;;;20.47;53.72;100597.00;5052376;28;20040;-81
2022/07/12 02:35:11;;;;;;;2.50;1.88;;;;;;;20.47;53.77;100599.72;5012161;28;20053;-81
2022/07/12 02:37:38;;;;;;;2.00;1.80;;;;;;;20.47;53.50;100600.53;5013556;28;20040;-81
2022/07/12 02:42:51;;;;;;;2.45;1.90;;;;;;;20.44;53.41;100600.91;5014141;28;20045;-79
2022/07/12 02:45:18;;;;;;;2.05;1.90;;;;;;;20.42;53.54;100594.84;5000035;28;20041;-78
2022/07/12 02:47:45;;;;;;;2.30;1.83;;;;;;;20.41;54.76;100593.19;5018525;28;20055;-83
2022/07/12 02:50:12;;;;;;;1.98;1.80;;;;;;;20.37;54.77;100594.56;5017061;28;20048;-79
2022/07/12 02:52:38;;;;;;;1.92;1.75;;;;;;;20.33;54.74;100596.78;5048585;28;20049;-79
2022/07/12 02:55:05;;;;;;;4.50;1.80;;;;;;;20.33;54.86;100593.25;5044685;28;20045;-82
2022/07/12 03:01:39;;;;;;;2.58;1.90;;;;;;;20.28;55.81;100609.16;4983896;28;21460;-80
2022/07/12 03:04:06;;;;;;;2.47;2.25;;;;;;;20.22;55.70;100599.88;5009514;28;20044;-81
2022/07/12 03:06:33;;;;;;;2.30;1.85;;;;;;;20.22;55.81;100609.84;5025265;28;20130;-80
2022/07/12 03:08:59;;;;;;;1.77;1.65;;;;;;;20.15;56.05;100602.47;5017030;28;20045;-89
2022/07/12 03:11:26;;;;;;;1.85;1.75;;;;;;;20.09;56.30;100607.75;5041004;28;20399;-88
2022/07/12 03:13:53;;;;;;;2.72;2.15;;;;;;;20.01;56.69;100608.63;5013996;28;20549;-81
2022/07/12 03:16:19;;;;;;;2.53;1.77;;;;;;;19.95;56.70;100617.44;5007881;28;20040;-80
2022/07/12 03:18:46;;;;;;;3.35;1.98;;;;;;;19.94;56.58;100619.28;5027715;28;20044;-83
2022/07/12 03:21:13;;;;;;;3.38;2.00;;;;;;;19.86;56.43;100621.19;5034997;28;20492;-84
2022/07/12 03:23:40;;;;;;;2.88;2.17;;;;;;;19.82;56.47;100618.03;5032546;28;20067;-83
2022/07/12 03:26:09;;;;;;;2.35;1.90;;;;;;;19.79;56.50;100628.31;5033247;28;20492;-82
2022/07/12 03:28:36;;;;;;;2.10;1.88;;;;;;;19.77;56.63;100630.34;5055558;28;20511;-83
2022/07/12 03:31:03;;;;;;;1.83;1.73;;;;;;;19.75;56.76;100624.31;5023207;28;20040;-82
2022/07/12 03:33:30;;;;;;;1.98;1.83;;;;;;;19.75;56.81;100630.53;5022020;28;20091;-82
2022/07/12 03:36:00;;;;;;;1.95;1.65;;;;;;;19.75;56.67;100635.09;5000959;28;20103;-82
2022/07/12 03:42:14;;;;;;;1.65;1.50;;;;;;;19.66;57.86;100632.38;4983856;28;20041;-81
2022/07/12 03:44:41;;;;;;;2.20;2.00;;;;;;;19.60;57.52;100634.94;5034037;28;20064;-82
2022/07/12 03:47:07;;;;;;;1.70;1.60;;;;;;;19.62;57.89;100636.44;5039372;28;20056;-81
2022/07/12 03:49:34;;;;;;;1.83;1.73;;;;;;;19.61;57.72;100637.44;5016977;28;20048;-82
2022/07/12 03:52:02;;;;;;;2.15;1.65;;;;;;;19.65;57.59;100646.88;5049295;28;20047;-81
2022/07/12 03:54:29;;;;;;;3.38;2.15;;;;;;;19.63;57.63;100643.50;5060264;28;20041;-81
2022/07/12 03:57:14;;;;;;;3.15;1.77;;;;;;;19.67;57.83;100654.81;5018926;28;20049;-82
2022/07/12 03:59:42;;;;;;;1.77;1.55;;;;;;;19.69;58.43;100650.06;4994470;28;20037;-82
2022/07/12 04:02:09;;;;;;;1.67;1.58;;;;;;;19.95;59.25;100650.63;5036637;28;20448;-81
2022/07/12 04:04:36;;;;;;;2.22;1.70;;;;;;;20.16;58.72;100659.94;5006266;28;20049;-82
2022/07/12 04:07:03;;;;;;;2.30;2.00;;;;;;;20.42;58.23;100658.75;5012653;28;20044;-82
2022/07/12 04:09:30;;;;;;;4.32;2.35;;;;;;;20.47;57.65;100653.66;5032988;28;20036;-82
2022/07/12 04:11:57;;;;;;;11.15;2.95;;;;;;;20.70;57.40;100650.97;5015338;28;20469;-83
2022/07/12 04:14:28;;;;;;;3.90;1.85;;;;;;;20.84;56.10;100647.50;4999457;28;20070;-82
2022/07/12 04:16:55;;;;;;;4.90;2.05;;;;;;;20.92;56.58;100643.88;5041561;28;20041;-83
2022/07/12 04:19:25;;;;;;;3.17;1.92;;;;;;;21.00;56.01;100650.00;5010673;28;20492;-83
2022/07/12 04:21:51;;;;;;;2.58;1.80;;;;;;;21.02;56.34;100650.69;5034356;28;20103;-83
2022/07/12 04:24:18;;;;;;;3.30;2.10;;;;;;;21.55;56.74;100647.94;5039860;28;20404;-82
2022/07/12 04:26:45;;;;;;;2.47;1.83;;;;;;;21.75;55.71;100650.88;5030972;28;20495;-83
2022/07/12 04:29:11;;;;;;;3.63;2.30;;;;;;;21.67;54.92;100640.19;5032445;28;20048;-83
2022/07/12 04:31:38;;;;;;;4.43;2.20;;;;;;;21.64;54.58;100648.66;5034375;28;20050;-82
2022/07/12 04:34:05;;;;;;;2.58;1.95;;;;;;;21.58;54.66;100657.53;5041329;28;20124;-83
2022/07/12 04:36:32;;;;;;;2.53;1.60;;;;;;;21.56;54.61;100651.47;5028878;28;20407;-83
2022/07/12 04:38:59;;;;;;;2.20;2.00;;;;;;;21.59;54.55;100645.69;5031795;28;20131;-83
2022/07/12 04:41:26;;;;;;;2.13;1.77;;;;;;;21.64;54.73;100645.97;5029386;28;20052;-83
2022/07/12 04:43:53;;;;;;;2.40;1.92;;;;;;;21.62;54.66;100648.84;5030010;28;20048;-83
2022/07/12 04:46:19;;;;;;;2.35;2.08;;;;;;;21.61;54.63;100649.88;5027703;28;20045;-83
2022/07/12 04:48:46;;;;;;;2.20;2.00;;;;;;;21.57;55.69;100648.56;4991326;28;20160;-83
2022/07/12 04:51:14;;;;;;;2.30;2.00;;;;;;;21.52;55.96;100651.00;4989770;28;20049;-83
2022/07/12 04:53:42;;;;;;;3.10;1.98;;;;;;;21.50;55.59;100652.22;5026978;28;20465;-84
2022/07/12 04:56:09;;;;;;;3.47;2.10;;;;;;;21.38;56.01;100654.53;5027494;28;20064;-84
2022/07/12 04:58:36;;;;;;;2.47;2.05;;;;;;;21.23;56.00;100654.50;5010560;28;20049;-83
2022/07/12 05:01:03;;;;;;;4.20;2.30;;;;;;;21.06;56.02;100651.13;5045639;28;20045;-83
2022/07/12 05:03:30;;;;;;;3.17;2.30;;;;;;;20.92;56.50;100647.41;5023526;28;20128;-84
2022/07/12 05:05:58;;;;;;;3.25;2.22;;;;;;;20.85;56.30;100659.94;5006645;28;20099;-82
2022/07/12 05:08:26;;;;;;;2.72;2.20;;;;;;;20.72;56.65;100654.34;5028858;28;20041;-83
2022/07/12 05:15:05;;;;;;;2.97;2.03;;;;;;;20.48;58.04;100660.72;4981480;28;20029;-83
2022/07/12 05:17:33;;;;;;;3.97;2.28;;;;;;;20.46;57.79;100671.72;5042666;28;20049;-82
2022/07/12 05:20:00;;;;;;;4.07;2.00;;;;;;;20.48;58.06;100666.97;5023813;28;20044;-84
2022/07/12 05:22:26;;;;;;;2.40;2.17;;;;;;;20.45;58.03;100663.78;5007256;28;20050;-81
2022/07/12 05:24:53;;;;;;;3.38;2.35;;;;;;;20.43;57.83;100665.81;5023268;28;20049;-82
2022/07/12 05:27:20;;;;;;;2.70;2.03;;;;;;;20.41;58.16;100679.50;5042064;28;20052;-81
2022/07/12 05:29:47;;;;;;;3.33;2.10;;;;;;;20.44;58.28;100662.13;5041652;28;20045;-83
2022/07/12 05:32:13;;;;;;;4.97;2.33;;;;;;;20.46;58.39;100669.03;5047138;28;20041;-83
2022/07/12 05:34:40;;;;;;;5.05;2.15;;;;;;;20.49;57.88;100668.66;5031554;28;20041;-83
2022/07/12 05:37:07;;;;;;;2.97;2.25;;;;;;;20.52;58.05;100670.97;5036309;28;20048;-83
2022/07/12 05:39:34;;;;;;;3.25;2.30;;;;;;;20.56;58.22;100672.34;5024260;28;20049;-82
2022/07/12 05:42:09;;;;;;;5.43;2.47;;;;;;;20.62;58.12;100678.03;5028930;28;20131;-82
2022/07/12 05:44:35;;;;;;;3.25;2.28;;;;;;;20.56;58.08;100680.44;5011006;28;20079;-84
2022/07/12 05:47:02;;;;;;;5.47;2.63;;;;;;;20.66;58.24;100674.81;5043573;28;20485;-82
2022/07/12 05:49:29;;;;;;;5.72;2.85;;;;;;;20.67;58.31;100673.78;5022525;28;20045;-82
2022/07/12 05:54:41;;;;;;;4.07;2.40;;;;;;;20.61;58.46;100688.00;5028196;28;20044;-82
2022/07/12 05:57:08;;;;;;;7.88;3.28;;;;;;;20.69;58.64;100692.50;5027504;28;20052;-84
2022/07/12 05:59:35;;;;;;;3.67;2.78;;;;;;;20.70;58.75;100694.16;4992589;28;20435;-82
2022/07/12 06:02:04;;;;;;;6.57;2.40;;;;;;;20.74;58.38;100690.94;5014639;28;20044;-82
2022/07/12 06:04:31;;;;;;;3.13;2.00;;;;;;;20.70;58.88;100702.25;5044473;28;20512;-82
2022/07/12 06:06:59;;;;;;;4.70;2.00;;;;;;;20.75;58.54;100699.84;4989295;28;20052;-84
2022/07/12 06:09:26;;;;;;;2.10;1.60;;;;;;;20.75;58.72;100700.69;5011497;28;20044;-82
2022/07/12 06:11:53;;;;;;;3.92;1.80;;;;;;;20.75;59.22;100698.00;5016719;28;20049;-83
2022/07/12 06:14:20;;;;;;;1.95;1.60;;;;;;;20.80;58.71;100706.38;5044201;28;20037;-83
2022/07/12 06:16:47;;;;;;;1.75;1.42;;;;;;;20.87;58.48;100706.50;5043234;28;20056;-83
2022/07/12 06:19:13;;;;;;;2.00;1.70;;;;;;;20.84;58.63;100706.88;5039889;28;20025;-83
2022/07/12 06:21:40;;;;;;;1.85;1.55;;;;;;;20.89;58.62;100712.56;4998992;28;20048;-82
2022/07/12 06:24:07;;;;;;;3.90;1.80;;;;;;;20.94;58.82;100715.56;5015497;28;20045;-82
2022/07/12 06:26:34;;;;;;;2.40;1.45;;;;;;;21.00;58.54;100712.13;4999897;28;20045;-82
2022/07/12 06:29:00;;;;;;;2.08;1.50;;;;;;;21.05;58.36;100711.59;5040596;28;20106;-84
2022/07/12 06:31:28;;;;;;;5.38;1.60;;;;;;;21.08;58.48;100721.19;5055024;28;20055;-83
2022/07/12 06:34:01;;;;;;;2.20;1.63;;;;;;;21.13;58.41;100716.06;5003306;28;20110;-83
2022/07/12 06:36:28;;;;;;;2.20;1.90;;;;;;;21.13;58.35;100716.06;5028174;28;20041;-85
2022/07/12 06:38:54;;;;;;;1.75;1.60;;;;;;;21.19;58.81;100718.88;4994439;28;20048;-84
2022/07/12 06:41:21;;;;;;;2.58;1.50;;;;;;;21.22;58.46;100718.50;5060663;28;21191;-83
2022/07/12 06:43:48;;;;;;;2.97;1.25;;;;;;;21.20;58.90;100712.44;5020455;28;20422;-83
2022/07/12 06:46:15;;;;;;;2.47;1.45;;;;;;;21.19;58.60;100709.91;5016423;28;20041;-83
2022/07/12 06:48:42;;;;;;;2.40;1.42;;;;;;;21.21;58.83;100707.88;5045177;28;20048;-83
2022/07/12 06:51:09;;;;;;;1.60;1.30;;;;;;;21.29;58.54;100713.19;5025668;28;20049;-84
2022/07/12 06:53:36;;;;;;;1.65;1.50;;;;;;;21.27;58.74;100711.69;5033680;28;20049;-83
2022/07/12 06:56:03;;;;;;;2.40;1.73;;;;;;;21.31;58.84;100721.97;5000174;28;20041;-83
2022/07/12 06:58:29;;;;;;;1.95;1.45;;;;;;;21.35;58.42;100719.75;5000077;28;20048;-82
2022/07/12 07:00:56;;;;;;;4.97;1.55;;;;;;;21.39;58.45;100729.16;5004860;28;20062;-82
2022/07/12 07:03:23;;;;;;;2.42;1.20;;;;;;;21.39;58.02;100731.88;5033337;28;20048;-81
2022/07/12 07:05:54;;;;;;;2.58;1.20;;;;;;;21.45;56.41;100733.84;4997234;28;20038;-82
2022/07/12 07:08:21;;;;;;;1.42;1.10;;;;;;;21.53;58.11;100741.03;5037636;28;20055;-81
2022/07/12 07:10:48;;;;;;;2.15;1.20;;;;;;;21.54;58.01;100735.44;5015459;28;20040;-83
2022/07/12 07:13:14;;;;;;;10.10;1.52;;;;;;;21.55;57.89;100747.94;5073217;28;20373;-83
2022/07/12 07:15:42;;;;;;;3.25;1.27;;;;;;;21.60;57.18;100734.69;5034867;28;20052;-83
2022/07/12 07:18:09;;;;;;;0.93;0.93;;;;;;;21.61;57.16;100741.78;5055695;28;20064;-83
2022/07/12 07:20:35;;;;;;;2.15;1.10;;;;;;;21.68;57.82;100733.78;5017867;28;20049;-82
2022/07/12 07:23:02;;;;;;;2.75;1.10;;;;;;;21.71;57.67;100733.41;5011812;28;20063;-83
2022/07/12 07:25:29;;;;;;;1.42;1.33;;;;;;;21.72;57.40;100736.94;5043625;28;20045;-83
2022/07/12 07:27:56;;;;;;;1.88;0.80;;;;;;;21.72;57.18;100739.63;5034957;28;20502;-83
2022/07/12 07:33:08;;;;;;;1.10;1.00;;;;;;;21.62;56.61;100738.03;5001785;28;20410;-82
2022/07/12 07:35:37;;;;;;;1.98;0.98;;;;;;;21.69;56.50;100743.53;5004471;28;20037;-83
2022/07/12 07:38:04;;;;;;;1.25;1.15;;;;;;;21.60;56.30;100747.34;5012757;28;20139;-84
2022/07/12 07:40:31;;;;;;;1.33;0.93;;;;;;;21.54;56.37;100742.69;5011892;28;20094;-85
2022/07/12 07:42:58;;;;;;;1.15;1.00;;;;;;;21.50;56.51;100739.53;5015482;28;20048;-85
2022/07/12 07:45:24;;;;;;;2.05;0.80;;;;;;;21.50;56.30;100741.38;5030074;28;20037;-83
2022/07/12 07:47:51;;;;;;;0.85;0.82;;;;;;;21.48;55.91;100740.75;5031491;28;20037;-84
2022/07/12 07:50:38;;;;;;;1.60;0.80;;;;;;;21.51;55.52;100740.38;4987631;28;20400;-83
2022/07/12 07:53:05;;;;;;;0.80;0.80;;;;;;;21.51;55.90;100735.81;5033827;28;20040;-84
2022/07/12 07:55:32;;;;;;;0.98;0.93;;;;;;;21.59;55.64;100734.88;4996996;28;20046;-83
2022/07/12 07:58:00;;;;;;;0.90;0.90;;;;;;;21.58;55.47;100733.22;5036412;28;20045;-85
2022/07/12 08:00:27;;;;;;;0.70;0.70;;;;;;;21.62;55.51;100724.53;5041510;28;20033;-83
2022/07/12 08:02:55;;;;;;;0.77;0.77;;;;;;;21.67;55.24;100727.50;5032290;28;20519;-83
2022/07/12 08:05:21;;;;;;;1.27;1.00;;;;;;;21.76;54.87;100714.75;5033935;28;20103;-83
2022/07/12 08:07:54;;;;;;;;;;;;;;;21.72;52.38;100720.72;5029704;28;20122;-84
2022/07/12 08:10:21;;;;;;;0.90;0.90;;;;;;;21.79;54.64;100722.47;5066578;28;19947;-84
2022/07/12 08:12:48;;;;;;;2.45;0.88;;;;;;;21.84;53.61;100720.06;5047598;28;20154;-83
2022/07/12 08:15:15;;;;;;;1.02;1.00;;;;;;;21.84;53.34;100719.22;5037118;28;20033;-81
2022/07/12 08:17:42;;;;;;;2.72;0.90;;;;;;;21.83;53.62;100718.38;4995744;28;20044;-83
2022/07/12 08:20:18;;;;;;;0.82;0.80;;;;;;;21.84;54.25;100717.34;5014905;28;20047;-83
2022/07/12 08:23:05;;;;;;;1.33;0.90;;;;;;;21.87;54.17;100722.38;5019494;28;20041;-83
2022/07/12 08:25:31;;;;;;;1.02;0.77;;;;;;;21.96;53.31;100725.00;5016620;28;20060;-82
2022/07/12 08:27:58;;;;;;;0.77;0.77;;;;;;;21.92;53.16;100727.22;5033508;28;20060;-83
2022/07/12 08:30:25;;;;;;;0.95;0.90;;;;;;;21.91;53.05;100733.66;5013777;28;20041;-80
2022/07/12 08:32:52;;;;;;;4.00;1.00;;;;;;;21.85;52.77;100735.25;5030345;28;20116;-81
2022/07/12 08:35:19;;;;;;;2.40;0.90;;;;;;;21.84;53.15;100727.31;5058819;28;20044;-80
2022/07/12 08:37:46;;;;;;;1.50;0.90;;;;;;;21.92;53.80;100727.22;5049867;28;20103;-81
2022/07/12 08:40:13;;;;;;;0.90;0.90;;;;;;;22.02;53.13;100732.34;5044767;28;20046;-81
2022/07/12 08:42:43;;;;;;;1.77;0.93;;;;;;;22.00;53.43;100729.81;5037451;28;20407;-80
2022/07/12 08:45:10;;;;;;;1.98;0.80;;;;;;;22.02;53.72;100732.34;5013788;28;20489;-80
2022/07/12 08:47:37;;;;;;;1.10;1.00;;;;;;;22.03;54.14;100728.59;4995390;28;20056;-81
2022/07/12 08:50:13;;;;;;;1.00;0.90;;;;;;;22.03;52.25;100737.56;5025334;28;20068;-84
2022/07/12 08:52:45;;;;;;;4.68;1.33;;;;;;;22.10;53.15;100732.22;4987208;28;20049;-85
2022/07/12 08:55:18;;;;;;;0.90;0.90;;;;;;;22.17;52.29;100730.44;4943415;28;20066;-84
2022/07/12 08:57:49;;;;;;;0.90;0.90;;;;;;;22.27;52.82;100728.31;4975302;28;20049;-85
2022/07/12 09:00:17;;;;;;;0.88;0.85;;;;;;;22.29;53.19;100739.78;4977626;28;20752;-85
2022/07/12 09:02:51;;;;;;;2.22;0.90;;;;;;;22.34;51.67;100736.53;4993716;28;20732;-84
2022/07/12 09:05:24;;;;;;;0.80;0.80;;;;;;;22.38;51.41;100737.78;4957380;28;20094;-84
2022/07/12 09:08:05;;;;;;;0.95;0.82;;;;;;;22.40;50.65;100734.91;4965132;28;20105;-84
2022/07/12 09:15:34;;;;;;;0.95;0.80;;;;;;;22.33;49.47;100726.69;4945350;28;20038;-83
2022/07/12 09:18:15;;;;;;;0.70;0.70;;;;;;;22.31;47.14;100728.75;4907337;28;20548;-85
2022/07/12 09:20:45;;;;;;;0.70;0.70;;;;;;;22.36;49.71;100734.44;4945724;28;20145;-84
2022/07/12 09:23:13;;;;;;;0.80;0.80;;;;;;;22.41;50.62;100726.56;4973935;28;20587;-84
2022/07/12 09:25:46;;;;;;;2.53;0.90;;;;;;;22.49;49.65;100723.78;5006639;28;20114;-84
2022/07/12 09:28:15;;;;;;;;;;;;;;;22.56;48.64;100717.59;5034125;28;20048;-85
2022/07/12 09:30:50;;;;;;;1.17;0.60;;;;;;;22.83;47.97;100724.09;5041076;28;19928;-86
2022/07/12 09:36:24;;;;;;;1.03;0.90;;;;;;;23.05;47.62;100714.09;4996658;28;20045;-83
2022/07/12 09:38:54;;;;;;;2.13;1.00;;;;;;;23.01;48.42;100724.50;5034805;28;20048;-84
2022/07/12 09:41:21;;;;;;;2.30;0.90;;;;;;;23.14;47.78;100718.34;5010092;28;20069;-84
2022/07/12 09:43:49;;;;;;;1.45;0.90;;;;;;;23.06;47.56;100716.63;5013391;28;20565;-84
2022/07/12 09:46:16;;;;;;;0.80;0.80;;;;;;;23.11;47.93;100722.28;4993869;28;20500;-83
2022/07/12 09:48:45;;;;;;;0.63;0.63;;;;;;;23.23;47.70;100722.59;5016753;28;20052;-81
2022/07/12 09:51:17;;;;;;;0.95;0.90;;;;;;;23.24;46.67;100715.31;5029299;28;20056;-81
2022/07/12 09:53:45;;;;;;;1.95;1.00;;;;;;;23.30;47.86;100717.22;5032153;28;20040;-82
2022/07/12 09:56:14;;;;;;;2.70;0.90;;;;;;;23.36;47.75;100717.25;5008463;28;20075;-81
2022/07/12 09:58:55;;;;;;;0.73;0.73;;;;;;;23.26;45.67;100713.22;5033469;28;20056;-82
2022/07/12 10:01:24;;;;;;;0.70;0.70;;;;;;;23.29;46.45;100719.09;5021603;28;20048;-83
2022/07/12 10:03:52;;;;;;;0.77;0.70;;;;;;;23.24;47.09;100707.16;5045915;28;20037;-81
2022/07/12 10:06:29;;;;;;;1.27;0.80;;;;;;;23.25;46.22;100706.94;5020039;28;20400;-82
2022/07/12 10:09:02;;;;;;;1.67;0.82;;;;;;;23.25;46.76;100714.25;5031365;28;20436;-82
2022/07/12 10:11:29;;;;;;;1.42;0.70;;;;;;;23.22;46.59;100706.53;5019999;28;20049;-82
2022/07/12 10:14:16;;;;;;;1.88;0.80;;;;;;;23.17;46.39;100715.25;4976499;28;20168;-81
2022/07/12 10:16:45;;;;;;;0.70;0.70;;;;;;;23.29;45.35;100712.84;5000920;28;20503;-81
2022/07/12 10:19:25;;;;;;;0.80;0.80;;;;;;;23.25;44.47;100706.94;5061550;28;20439;-80
2022/07/12 10:21:56;;;;;;;1.75;0.60;;;;;;;23.29;45.23;100696.56;4994107;28;20094;-80
2022/07/12 10:24:32;;;;;;;1.00;0.83;;;;;;;23.23;43.14;100703.63;5022386;28;20045;-81
2022/07/12 10:27:14;;;;;;;0.80;0.80;;;;;;;23.19;44.36;100700.47;5030913;28;20142;-82
2022/07/12 10:29:46;;;;;;;0.80;0.80;;;;;;;23.26;45.55;100703.22;5022729;28;20044;-83
2022/07/12 10:32:26;;;;;;;0.80;0.80;;;;;;;23.25;43.78;100703.41;5010327;28;20059;-83
2022/07/12 10:35:06;;;;;;;2.60;0.90;;;;;;;23.26;44.13;100696.97;5016152;28;20045;-82
2022/07/12 10:37:34;;;;;;;2.35;0.73;;;;;;;23.30;44.53;100698.25;5024541;28;20514;-84
2022/07/12 10:40:16;;;;;;;0.98;0.80;;;;;;;23.23;43.35;100702.78;4996354;28;20515;-80
2022/07/12 10:43:02;;;;;;;1.13;0.90;;;;;;;23.29;43.58;100696.56;5035009;28;20041;-81
2022/07/12 10:45:33;;;;;;;0.70;0.70;;;;;;;23.37;44.22;100689.13;4959713;28;20040;-82
2022/07/12 10:48:13;;;;;;;0.90;0.75;;;;;;;23.33;43.77;100690.56;5058360;28;20033;-80
2022/07/12 10:50:55;;;;;;;0.93;0.82;;;;;;;23.29;44.20;100702.81;5033590;28;20045;-81
2022/07/12 10:53:37;;;;;;;1.17;0.70;;;;;;;23.47;44.41;100687.94;5041832;28;20068;-80
2022/07/12 10:56:04;;;;;;;0.70;0.70;;;;;;;23.46;43.83;100692.53;5043365;28;20049;-81
2022/07/12 10:58:33;;;;;;;1.20;0.70;;;;;;;23.45;43.82;100692.72;5020850;28;20492;-82
2022/07/12 11:01:02;;;;;;;1.80;1.00;;;;;;;23.43;43.80;100690.19;5027616;28;20110;-82
2022/07/12 11:03:43;;;;;;;0.77;0.77;;;;;;;23.44;43.54;100693.75;5026307;28;20065;-81
2022/07/12 11:06:16;;;;;;;0.82;0.82;;;;;;;23.48;43.74;100697.72;4987638;28;20044;-85
2022/07/12 11:09:04;;;;;;;1.23;0.77;;;;;;;23.43;43.54;100697.47;4978842;28;20048;-81
2022/07/12 11:11:33;;;;;;;1.02;0.80;;;;;;;23.63;43.70;100695.72;4968449;28;20107;-82
2022/07/12 11:14:01;;;;;;;0.77;0.70;;;;;;;23.59;43.25;100699.91;5023463;28;20376;-85
2022/07/12 11:16:29;;;;;;;0.82;0.82;;;;;;;23.62;43.11;100696.78;4994757;28;20048;-85
2022/07/12 11:18:57;;;;;;;1.13;0.90;;;;;;;23.65;43.45;100692.81;5047395;28;20163;-84
2022/07/12 11:21:24;;;;;;;0.95;0.80;;;;;;;23.69;43.54;100691.41;5029347;28;20064;-84
2022/07/12 11:23:51;;;;;;;2.55;0.90;;;;;;;23.70;43.56;100685.75;5034841;28;20052;-83
2022/07/12 11:26:18;;;;;;;0.90;0.90;;;;;;;23.77;43.45;100692.09;5011460;28;20066;-85
2022/07/12 11:28:47;;;;;;;0.93;0.85;;;;;;;23.81;43.38;100682.53;5000143;28;20044;-84
2022/07/12 11:31:16;;;;;;;0.70;0.70;;;;;;;23.85;42.69;100677.50;5008351;28;20045;-83
2022/07/12 11:33:48;;;;;;;0.70;0.70;;;;;;;23.86;42.60;100687.31;5042344;28;20041;-83
2022/07/12 11:36:15;;;;;;;0.83;0.83;;;;;;;23.88;42.48;100690.66;4997331;28;20089;-84
2022/07/12 11:38:45;;;;;;;2.88;0.90;;;;;;;23.90;42.25;100685.06;4985676;28;20037;-83
2022/07/12 11:41:13;;;;;;;0.70;0.70;;;;;;;23.91;42.75;100687.53;5011219;28;20563;-84
2022/07/12 11:43:44;;;;;;;0.80;0.80;;;;;;;23.98;42.36;100685.69;4999393;28;20048;-82
2022/07/12 11:46:11;;;;;;;4.47;0.85;;;;;;;24.00;42.56;100677.38;5038596;28;20150;-83
2022/07/12 11:48:42;;;;;;;0.75;0.73;;;;;;;24.09;41.96;100675.31;4988299;28;20049;-83
2022/07/12 11:51:11;;;;;;;0.70;0.70;;;;;;;24.07;42.14;100669.22;5007032;28;20048;-82
2022/07/12 11:53:38;;;;;;;2.72;0.90;;;;;;;24.14;42.16;100664.66;5041485;28;20734;-84
2022/07/12 11:56:11;;;;;;;1.05;1.00;;;;;;;24.16;41.27;100660.72;5011803;28;20040;-83
2022/07/12 11:58:41;;;;;;;0.88;0.85;;;;;;;24.22;41.75;100659.03;5037947;28;20056;-82
2022/07/12 12:01:14;;;;;;;1.45;1.00;;;;;;;24.26;41.21;100655.72;5029220;28;20048;-82
2022/07/12 12:03:45;;;;;;;1.00;0.90;;;;;;;24.27;41.22;100659.28;5049660;28;20075;-83
2022/07/12 12:06:14;;;;;;;0.80;0.80;;;;;;;24.24;40.88;100649.66;5022571;28;20047;-83
2022/07/12 12:08:42;;;;;;;2.08;0.73;;;;;;;24.29;41.21;100640.91;4996432;28;20204;-86
2022/07/12 12:11:10;;;;;;;1.42;0.60;;;;;;;24.32;41.61;100653.22;5011633;28;20084;-81
2022/07/12 12:13:38;;;;;;;2.53;0.82;;;;;;;24.33;41.50;100646.78;4995887;28;20037;-84
2022/07/12 12:16:05;;;;;;;0.80;0.80;;;;;;;24.34;41.34;100646.56;5015959;28;20482;-84